createdAt,value
2018-07-19T00:01:46.739Z,100987.68
2018-07-19T00:04:20.139Z,100993.82
2018-07-19T00:06:53.515Z,100989.66
2018-07-19T00:09:26.967Z,100990.95
2018-07-19T00:12:00.377Z,100993.67
2018-07-19T00:14:33.780Z,100992.96
2018-07-19T00:17:07.519Z,100989.05
2018-07-19T00:19:40.936Z,100985.22
2018-07-19T00:22:14.315Z,100977.10
2018-07-19T00:24:47.705Z,100983.55
2018-07-19T00:27:21.294Z,100982.09
2018-07-19T00:29:54.675Z,100978.73
2018-07-19T00:32:28.068Z,100976.82
2018-07-19T00:35:01.425Z,100981.78
2018-07-19T00:37:34.843Z,100973.47
2018-07-19T00:40:08.240Z,100984.72
2018-07-19T00:42:41.647Z,100978.80
2018-07-19T00:45:15.066Z,100979.00
2018-07-19T00:47:48.468Z,100969.82
2018-07-19T00:50:21.827Z,100973.83
2018-07-19T00:52:55.233Z,100974.77
2018-07-19T00:55:28.588Z,100972.68
2018-07-19T00:58:01.983Z,100974.59
2018-07-19T01:00:35.527Z,100972.75
2018-07-19T01:03:08.965Z,100968.64
2018-07-19T01:05:42.324Z,100977.45
2018-07-19T01:08:15.732Z,100974.81
2018-07-19T01:10:49.103Z,100972.13
2018-07-19T01:13:22.645Z,100970.35
2018-07-19T01:15:56.019Z,100976.44
2018-07-19T01:18:29.444Z,100974.74
2018-07-19T01:21:02.815Z,100976.20
2018-07-19T01:23:36.252Z,100971.16
2018-07-19T01:26:09.642Z,100968.83
2018-07-19T01:28:43.039Z,100980.23
2018-07-19T01:31:16.771Z,100970.03
2018-07-19T01:33:50.175Z,100967.16
2018-07-19T01:36:23.567Z,100972.97
2018-07-19T01:38:56.939Z,100971.50
2018-07-19T01:41:41.572Z,100972.20
2018-07-19T01:44:14.964Z,100968.54
2018-07-19T01:46:48.385Z,100963.49
2018-07-19T01:49:21.821Z,100961.02
2018-07-19T01:51:55.295Z,100957.64
2018-07-19T01:54:28.695Z,100953.40
2018-07-19T01:57:02.196Z,100947.97
2018-07-19T01:59:35.607Z,100959.02
2018-07-19T02:02:09.076Z,100954.12
2018-07-19T02:04:42.708Z,100958.56
2018-07-19T02:07:16.220Z,100960.95
2018-07-19T02:09:49.644Z,100957.70
2018-07-19T02:12:23.083Z,100966.88
2018-07-19T02:14:56.590Z,100971.22
2018-07-19T02:17:30.064Z,100972.66
2018-07-19T02:20:03.493Z,100981.75
2018-07-19T02:22:36.923Z,100978.05
2018-07-19T02:25:10.339Z,100978.69
2018-07-19T02:27:43.768Z,100979.23
2018-07-19T02:30:17.171Z,100984.79
2018-07-19T02:32:50.623Z,100981.38
2018-07-19T02:35:24.091Z,100983.50
2018-07-19T02:37:57.528Z,100982.13
2018-07-19T02:40:30.968Z,100985.66
2018-07-19T02:43:04.436Z,100984.91
2018-07-19T02:45:37.936Z,100976.48
2018-07-19T02:48:11.368Z,100981.33
2018-07-19T02:50:44.759Z,100976.81
2018-07-19T02:53:18.272Z,100985.06
2018-07-19T02:55:51.701Z,100979.63
2018-07-19T02:58:25.167Z,100975.86
2018-07-19T03:00:58.679Z,100976.84
2018-07-19T03:03:32.126Z,100968.44
2018-07-19T03:06:05.779Z,100971.15
2018-07-19T03:08:39.240Z,100969.95
2018-07-19T03:11:12.678Z,100971.80
2018-07-19T03:13:46.113Z,100976.99
2018-07-19T03:16:19.620Z,100977.02
2018-07-19T03:18:53.022Z,100973.28
2018-07-19T03:21:26.529Z,100976.77
2018-07-19T03:23:59.926Z,100980.77
2018-07-19T03:26:33.573Z,100977.55
2018-07-19T03:29:07.068Z,100974.65
2018-07-19T03:31:40.573Z,100974.67
2018-07-19T03:34:14.007Z,100974.28
2018-07-19T03:36:47.431Z,100980.95
2018-07-19T03:39:20.875Z,100982.31
2018-07-19T03:41:54.491Z,100978.15
2018-07-19T03:44:28.817Z,100978.91
2018-07-19T03:47:02.927Z,100981.47
2018-07-19T03:49:36.356Z,100982.81
2018-07-19T03:52:09.783Z,100987.97
2018-07-19T03:54:43.255Z,100985.46
2018-07-19T03:57:16.640Z,100979.06
2018-07-19T03:59:50.302Z,100978.81
2018-07-19T04:02:23.680Z,100982.34
2018-07-19T04:04:57.211Z,100984.09
2018-07-19T04:07:30.604Z,100980.72
2018-07-19T04:10:04.199Z,100982.97
2018-07-19T04:12:37.597Z,100981.30
2018-07-19T04:15:11.047Z,100988.18
2018-07-19T04:17:50.683Z,100988.60
2018-07-19T04:20:25.655Z,100985.53
2018-07-19T04:22:59.063Z,100982.00
2018-07-19T04:25:32.484Z,100989.91
2018-07-19T04:28:05.932Z,100984.09
2018-07-19T04:30:39.354Z,100991.67
2018-07-19T04:33:12.762Z,100991.88
2018-07-19T04:35:46.323Z,101000.02
2018-07-19T04:38:19.828Z,101002.36
2018-07-19T04:40:53.172Z,101000.43
2018-07-19T04:43:26.595Z,101006.08
2018-07-19T04:46:00.354Z,101007.02
2018-07-19T04:48:33.799Z,101000.34
2018-07-19T04:51:07.328Z,101005.11
2018-07-19T04:53:40.734Z,100998.27
2018-07-19T04:56:14.176Z,101000.94
2018-07-19T04:58:47.600Z,101010.28
2018-07-19T05:01:21.051Z,101011.45
2018-07-19T05:03:54.583Z,101012.96
2018-07-19T05:06:27.990Z,101015.78
2018-07-19T05:09:01.375Z,101022.94
2018-07-19T05:11:34.848Z,101025.92
2018-07-19T05:14:08.343Z,101034.63
2018-07-19T05:16:41.712Z,101032.82
2018-07-19T05:19:15.094Z,101028.68
2018-07-19T05:21:48.503Z,101027.52
2018-07-19T05:24:21.864Z,101022.26
2018-07-19T05:26:55.282Z,101018.77
2018-07-19T05:29:28.651Z,101023.63
2018-07-19T05:32:02.017Z,101016.45
2018-07-19T05:34:35.420Z,101016.92
2018-07-19T05:37:08.909Z,101023.84
2018-07-19T05:39:42.309Z,101028.16
2018-07-19T05:42:15.734Z,101024.83
2018-07-19T05:44:49.155Z,101027.69
2018-07-19T05:47:22.642Z,101021.69
2018-07-19T05:49:56.130Z,101020.51
2018-07-19T05:52:29.548Z,101027.74
2018-07-19T05:55:03.573Z,101021.73
2018-07-19T05:57:37.121Z,101022.88
2018-07-19T06:00:10.527Z,101026.63
2018-07-19T06:02:43.967Z,101023.48
2018-07-19T06:05:17.405Z,101024.30
2018-07-19T06:07:50.786Z,101028.52
2018-07-19T06:10:24.188Z,101023.87
2018-07-19T06:12:57.604Z,101027.94
2018-07-19T06:15:31.030Z,101034.28
2018-07-19T06:18:04.459Z,101036.17
2018-07-19T06:20:37.913Z,101034.86
2018-07-19T06:23:11.303Z,101038.72
2018-07-19T06:25:44.724Z,101027.69
2018-07-19T06:28:18.178Z,101026.36
2018-07-19T06:30:51.567Z,101034.82
2018-07-19T06:33:24.973Z,101023.59
2018-07-19T06:35:58.915Z,101027.05
2018-07-19T06:38:32.325Z,101018.64
2018-07-19T06:41:05.834Z,101026.08
2018-07-19T06:43:39.241Z,101028.58
2018-07-19T06:46:12.729Z,101022.81
2018-07-19T06:48:46.113Z,101026.67
2018-07-19T06:51:19.507Z,101032.16
2018-07-19T06:53:52.886Z,101034.05
2018-07-19T06:56:26.300Z,101037.02
2018-07-19T06:58:59.669Z,101045.19
2018-07-19T07:01:33.101Z,101048.59
2018-07-19T07:04:06.514Z,101048.67
2018-07-19T07:06:39.934Z,101044.38
2018-07-19T07:09:13.452Z,101039.80
2018-07-19T07:11:47.009Z,101044.52
2018-07-19T07:14:20.377Z,101035.92
2018-07-19T07:16:53.818Z,101035.33
2018-07-19T07:19:27.223Z,101036.28
2018-07-19T07:22:00.660Z,101038.62
2018-07-19T07:24:34.424Z,101041.73
2018-07-19T07:27:07.855Z,101040.55
2018-07-19T07:29:41.250Z,101045.66
2018-07-19T07:32:16.145Z,101050.19
2018-07-19T07:34:49.693Z,101040.84
2018-07-19T07:37:23.179Z,101048.97
2018-07-19T07:39:56.625Z,101045.19
2018-07-19T07:42:30.056Z,101050.52
2018-07-19T07:45:03.513Z,101055.70
2018-07-19T07:47:36.969Z,101050.73
2018-07-19T07:50:10.399Z,101044.84
2018-07-19T07:52:43.820Z,101046.29
2018-07-19T07:55:17.236Z,101048.77
2018-07-19T07:57:50.670Z,101047.83
2018-07-19T08:00:24.086Z,101050.00
2018-07-19T08:02:57.531Z,101054.36
2018-07-19T08:05:30.936Z,101060.09
2018-07-19T08:08:04.479Z,101056.31
2018-07-19T08:10:37.892Z,101046.43
2018-07-19T08:13:11.359Z,101046.18
2018-07-19T08:15:44.880Z,101050.03
2018-07-19T08:18:18.381Z,101047.83
2018-07-19T08:20:51.787Z,101052.56
2018-07-19T08:23:25.237Z,101045.83
2018-07-19T08:25:58.733Z,101052.62
2018-07-19T08:28:32.170Z,101046.17
2018-07-19T08:31:05.662Z,101043.13
2018-07-19T08:33:39.152Z,101038.52
2018-07-19T08:36:13.587Z,101034.82
2018-07-19T08:38:46.991Z,101041.50
2018-07-19T08:41:20.423Z,101035.17
2018-07-19T08:43:53.872Z,101031.50
2018-07-19T08:46:27.296Z,101035.19
2018-07-19T08:49:00.712Z,101035.77
2018-07-19T08:51:34.137Z,101030.27
2018-07-19T08:54:07.649Z,101033.13
2018-07-19T08:56:41.074Z,101027.66
2018-07-19T08:59:14.536Z,101028.38
2018-07-19T09:01:47.990Z,101032.41
2018-07-19T09:04:21.452Z,101030.97
2018-07-19T09:06:54.877Z,101025.96
2018-07-19T09:09:28.297Z,101030.53
2018-07-19T09:12:01.692Z,101025.67
2018-07-19T09:14:35.105Z,101032.43
2018-07-19T09:17:08.564Z,101028.78
2018-07-19T09:19:42.016Z,101031.25
2018-07-19T09:22:15.416Z,101026.36
2018-07-19T09:24:48.856Z,101034.47
2018-07-19T09:27:22.712Z,101027.08
2018-07-19T09:29:56.118Z,101022.85
2018-07-19T09:32:29.539Z,101020.86
2018-07-19T09:35:02.982Z,101024.29
2018-07-19T09:37:36.430Z,101027.97
2018-07-19T09:40:10.186Z,101026.38
2018-07-19T09:42:43.624Z,101028.40
2018-07-19T09:45:17.035Z,101015.52
2018-07-19T09:47:50.471Z,101020.52
2018-07-19T09:50:23.899Z,101018.09
2018-07-19T09:52:57.340Z,101019.13
2018-07-19T09:55:30.726Z,101017.06
2018-07-19T09:58:04.183Z,101022.25
2018-07-19T10:00:43.028Z,101010.19
2018-07-19T10:03:16.456Z,101022.31
2018-07-19T10:05:49.912Z,101027.50
2018-07-19T10:08:23.316Z,101032.33
2018-07-19T10:10:56.770Z,101018.23
2018-07-19T10:13:30.281Z,101019.77
2018-07-19T10:16:03.762Z,101004.83
2018-07-19T10:18:37.145Z,101012.45
2018-07-19T10:21:10.731Z,101008.56
2018-07-19T10:23:44.135Z,101010.55
2018-07-19T10:26:17.517Z,101010.74
2018-07-19T10:28:50.931Z,101009.99
2018-07-19T10:31:24.333Z,101014.72
2018-07-19T10:33:57.748Z,101011.13
2018-07-19T10:36:31.133Z,101013.06
2018-07-19T10:39:05.998Z,101012.63
2018-07-19T10:41:39.485Z,101007.11
2018-07-19T10:44:12.896Z,101004.18
2018-07-19T10:46:46.283Z,101007.63
2018-07-19T10:49:19.719Z,101001.30
2018-07-19T10:51:53.129Z,101003.43
2018-07-19T10:54:26.472Z,101007.81
2018-07-19T10:56:59.828Z,101004.29
2018-07-19T10:59:33.211Z,100997.24
2018-07-19T11:02:06.635Z,100994.14
2018-07-19T11:04:40.017Z,100988.81
2018-07-19T11:07:13.419Z,100989.58
2018-07-19T11:09:47.243Z,100996.48
2018-07-19T11:12:20.622Z,100986.46
2018-07-19T11:14:54.005Z,100987.62
2018-07-19T11:17:27.603Z,100983.77
2018-07-19T11:20:00.973Z,100980.44
2018-07-19T11:22:34.363Z,100976.86
2018-07-19T11:25:07.774Z,100974.09
2018-07-19T11:27:41.145Z,100979.28
2018-07-19T11:30:14.555Z,100975.67
2018-07-19T11:32:47.928Z,100971.30
2018-07-19T11:35:21.401Z,100967.69
2018-07-19T11:37:54.716Z,100974.69
2018-07-19T11:40:28.152Z,100969.50
2018-07-19T11:43:01.717Z,100970.41
2018-07-19T11:45:35.083Z,100972.82
2018-07-19T11:48:08.488Z,100965.20
2018-07-19T11:50:41.859Z,100974.77
2018-07-19T11:53:15.233Z,100968.30
2018-07-19T11:55:48.617Z,100965.90
2018-07-19T11:58:22.212Z,100966.59
2018-07-19T12:00:55.609Z,100964.75
2018-07-19T12:03:28.984Z,100967.56
2018-07-19T12:06:02.415Z,100964.18
2018-07-19T12:08:35.778Z,100962.55
2018-07-19T12:11:09.207Z,100964.90
2018-07-19T12:13:42.600Z,100959.81
2018-07-19T12:16:16.075Z,100959.85
2018-07-19T12:18:49.456Z,100957.11
2018-07-19T12:21:22.879Z,100955.98
2018-07-19T12:23:56.496Z,100955.90
2018-07-19T12:26:29.955Z,100950.79
2018-07-19T12:29:03.349Z,100946.75
2018-07-19T12:31:36.783Z,100945.00
2018-07-19T12:34:10.211Z,100945.27
2018-07-19T12:36:43.615Z,100939.97
2018-07-19T12:39:17.005Z,100941.80
2018-07-19T12:41:50.439Z,100936.92
2018-07-19T12:44:23.857Z,100940.49
2018-07-19T12:46:57.300Z,100936.08
2018-07-19T12:49:30.680Z,100937.80
2018-07-19T12:52:04.249Z,100939.38
2018-07-19T12:54:37.580Z,100937.32
2018-07-19T12:57:11.025Z,100937.68
2018-07-19T12:59:44.479Z,100933.84
2018-07-19T13:02:17.905Z,100936.05
2018-07-19T13:04:51.383Z,100937.44
2018-07-19T13:07:24.796Z,100936.67
2018-07-19T13:09:58.194Z,100936.19
2018-07-19T13:12:31.628Z,100938.11
2018-07-19T13:15:06.333Z,100931.48
2018-07-19T13:17:39.913Z,100937.09
2018-07-19T13:20:13.326Z,100931.18
2018-07-19T13:22:46.734Z,100934.59
2018-07-19T13:25:20.108Z,100930.44
2018-07-19T13:27:53.524Z,100937.38
2018-07-19T13:30:26.932Z,100934.63
2018-07-19T13:33:00.355Z,100928.44
2018-07-19T13:35:33.740Z,100932.22
2018-07-19T13:38:07.143Z,100928.67
2018-07-19T13:40:40.556Z,100927.79
2018-07-19T13:43:13.956Z,100926.81
2018-07-19T13:45:47.367Z,100925.48
2018-07-19T13:48:20.853Z,100932.72
2018-07-19T13:50:54.292Z,100910.94
2018-07-19T13:53:40.215Z,100909.56
2018-07-19T13:56:13.647Z,100908.36
2018-07-19T13:58:47.071Z,100906.75
2018-07-19T14:01:20.476Z,100913.94
2018-07-19T14:03:53.900Z,100912.30
2018-07-19T14:06:27.302Z,100909.80
2018-07-19T14:09:00.712Z,100909.56
2018-07-19T14:11:34.104Z,100903.82
2018-07-19T14:14:07.613Z,100902.56
2018-07-19T14:16:40.994Z,100902.41
2018-07-19T14:19:14.419Z,100899.51
2018-07-19T14:21:47.785Z,100908.85
2018-07-19T14:24:21.167Z,100898.13
2018-07-19T14:26:54.513Z,100901.58
2018-07-19T14:29:27.924Z,100896.88
2018-07-19T14:32:01.343Z,100900.16
2018-07-19T14:34:34.769Z,100900.03
2018-07-19T14:37:08.135Z,100893.47
2018-07-19T14:39:41.516Z,100894.84
2018-07-19T14:42:14.998Z,100895.23
2018-07-19T14:44:48.399Z,100894.69
2018-07-19T14:47:21.792Z,100894.96
2018-07-19T14:49:55.162Z,100889.43
2018-07-19T14:52:28.540Z,100890.53
2018-07-19T14:55:01.941Z,100889.70
2018-07-19T14:57:35.403Z,100893.25
2018-07-19T15:00:09.591Z,100888.75
2018-07-19T15:02:43.061Z,100884.23
2018-07-19T15:05:16.508Z,100885.33
2018-07-19T15:07:49.866Z,100885.25
2018-07-19T15:10:23.563Z,100882.91
2018-07-19T15:12:56.991Z,100884.84
2018-07-19T15:15:30.592Z,100882.98
2018-07-19T15:18:04.009Z,100887.07
2018-07-19T15:20:37.404Z,100887.45
2018-07-19T15:23:11.607Z,100877.66
2018-07-19T15:25:45.131Z,100878.84
2018-07-19T15:28:18.590Z,100876.50
2018-07-19T15:30:52.313Z,100872.28
2018-07-19T15:33:25.714Z,100877.03
2018-07-19T15:35:59.106Z,100878.69
2018-07-19T15:38:32.488Z,100878.27
2018-07-19T15:41:05.897Z,100880.06
2018-07-19T15:43:39.296Z,100874.53
2018-07-19T15:46:12.680Z,100879.56
2018-07-19T15:48:46.073Z,100878.93
2018-07-19T15:51:19.517Z,100877.64
2018-07-19T15:53:52.932Z,100872.61
2018-07-19T15:56:26.357Z,100870.59
2018-07-19T15:58:59.735Z,100868.92
2018-07-19T16:01:33.209Z,100867.81
2018-07-19T16:04:06.606Z,100867.47
2018-07-19T16:06:40.862Z,100871.08
2018-07-19T16:09:14.220Z,100867.33
2018-07-19T16:11:47.654Z,100866.23
2018-07-19T16:14:21.148Z,100874.36
2018-07-19T16:16:54.564Z,100874.14
2018-07-19T16:19:27.931Z,100864.37
2018-07-19T16:22:01.315Z,100860.91
2018-07-19T16:24:34.715Z,100862.16
2018-07-19T16:27:08.121Z,100863.82
2018-07-19T16:29:41.501Z,100861.63
2018-07-19T16:32:14.891Z,100861.27
2018-07-19T16:34:48.292Z,100854.34
2018-07-19T16:37:22.065Z,100854.84
2018-07-19T16:39:55.451Z,100857.06
2018-07-19T16:42:28.856Z,100851.89
2018-07-19T16:45:02.265Z,100852.90
2018-07-19T16:47:35.719Z,100853.27
2018-07-19T16:50:09.136Z,100850.23
2018-07-19T16:52:42.537Z,100846.86
2018-07-19T16:55:15.909Z,100851.44
2018-07-19T16:57:49.295Z,100848.59
2018-07-19T17:00:22.692Z,100846.64
2018-07-19T17:02:56.129Z,100838.69
2018-07-19T17:05:29.517Z,100841.20
2018-07-19T17:08:02.981Z,100842.89
2018-07-19T17:10:36.370Z,100844.84
2018-07-19T17:13:09.974Z,100839.11
2018-07-19T17:15:43.335Z,100849.38
2018-07-19T17:18:16.739Z,100849.45
2018-07-19T17:20:50.100Z,100840.94
2018-07-19T17:23:23.475Z,100848.92
2018-07-19T17:25:56.866Z,100846.89
2018-07-19T17:28:30.253Z,100848.57
2018-07-19T17:31:03.594Z,100846.42
2018-07-19T17:33:36.977Z,100838.36
2018-07-19T17:36:10.480Z,100845.07
2018-07-19T17:38:43.881Z,100846.20
2018-07-19T17:41:17.277Z,100849.28
2018-07-19T17:43:50.643Z,100847.29
2018-07-19T17:46:24.017Z,100846.66
2018-07-19T17:48:57.414Z,100844.58
2018-07-19T17:51:30.857Z,100841.83
2018-07-19T17:54:04.342Z,100845.84
2018-07-19T17:56:37.914Z,100839.59
2018-07-19T17:59:11.351Z,100844.20
2018-07-19T18:01:44.813Z,100843.86
2018-07-19T18:04:18.289Z,100845.07
2018-07-19T18:06:51.663Z,100841.64
2018-07-19T18:09:25.071Z,100842.52
2018-07-19T18:11:58.456Z,100841.11
2018-07-19T18:14:31.859Z,100842.80
2018-07-19T18:17:05.352Z,100838.16
2018-07-19T18:19:38.728Z,100845.58
2018-07-19T18:22:12.114Z,100843.81
2018-07-19T18:24:46.698Z,100845.81
2018-07-19T18:27:20.140Z,100840.03
2018-07-19T18:29:53.573Z,100845.59
2018-07-19T18:32:26.983Z,100848.22
2018-07-19T18:35:00.438Z,100847.86
2018-07-19T18:37:33.849Z,100843.72
2018-07-19T18:40:07.362Z,100843.39
2018-07-19T18:42:40.735Z,100845.29
2018-07-19T18:45:14.108Z,100843.02
2018-07-19T18:47:47.567Z,100844.30
2018-07-19T18:50:20.939Z,100839.51
2018-07-19T18:52:54.353Z,100840.55
2018-07-19T18:55:27.771Z,100844.09
2018-07-19T18:58:01.238Z,100849.97
2018-07-19T19:00:34.644Z,100849.77
2018-07-19T19:03:08.359Z,100851.38
2018-07-19T19:05:41.846Z,100853.80
2018-07-19T19:08:15.227Z,100856.92
2018-07-19T19:10:48.620Z,100856.12
2018-07-19T19:13:22.109Z,100851.73
2018-07-19T19:15:55.505Z,100854.17
2018-07-19T19:18:28.905Z,100855.34
2018-07-19T19:21:02.363Z,100863.16
2018-07-19T19:23:35.824Z,100863.59
2018-07-19T19:26:09.763Z,100862.18
2018-07-19T19:28:43.591Z,100861.30
2018-07-19T19:31:17.252Z,100866.00
2018-07-19T19:33:50.681Z,100866.82
2018-07-19T19:36:24.059Z,100870.80
2018-07-19T19:38:57.580Z,100873.03
2018-07-19T19:41:31.136Z,100868.14
2018-07-19T19:44:04.569Z,100871.07
2018-07-19T19:46:37.997Z,100867.71
2018-07-19T19:49:11.484Z,100870.80
2018-07-19T19:51:44.885Z,100875.73
2018-07-19T19:54:18.333Z,100869.83
2018-07-19T19:56:51.688Z,100875.23
2018-07-19T19:59:25.101Z,100872.18
2018-07-19T20:01:58.476Z,100875.04
2018-07-19T20:04:31.866Z,100864.83
2018-07-19T20:07:05.262Z,100864.79
2018-07-19T20:09:38.675Z,100866.83
2018-07-19T20:12:12.079Z,100865.98
2018-07-19T20:14:45.764Z,100857.88
2018-07-19T20:17:19.141Z,100860.19
2018-07-19T20:19:52.524Z,100862.69
2018-07-19T20:22:25.904Z,100863.11
2018-07-19T20:24:59.384Z,100856.59
2018-07-19T20:27:32.728Z,100860.90
2018-07-19T20:30:06.167Z,100858.74
2018-07-19T20:32:39.559Z,100866.33
2018-07-19T20:35:12.934Z,100858.84
2018-07-19T20:37:46.297Z,100862.02
2018-07-19T20:40:19.672Z,100857.47
2018-07-19T20:42:53.224Z,100865.23
2018-07-19T20:45:26.799Z,100858.36
2018-07-19T20:48:00.127Z,100862.34
2018-07-19T20:50:33.518Z,100859.14
2018-07-19T20:53:06.874Z,100866.25
2018-07-19T20:55:40.357Z,100867.34
2018-07-19T20:58:13.711Z,100868.05
2018-07-19T21:00:47.335Z,100868.80
2018-07-19T21:03:20.951Z,100865.33
2018-07-19T21:05:54.404Z,100861.23
2018-07-19T21:08:27.818Z,100860.87
2018-07-19T21:11:01.390Z,100859.14
2018-07-19T21:13:35.375Z,100865.23
2018-07-19T21:16:08.913Z,100860.61
2018-07-19T21:18:42.378Z,100861.59
2018-07-19T21:21:15.772Z,100858.04
2018-07-19T21:23:49.191Z,100857.66
2018-07-19T21:26:22.583Z,100854.90
2018-07-19T21:28:56.112Z,100865.34
2018-07-19T21:31:30.304Z,100859.36
2018-07-19T21:34:04.354Z,100859.13
2018-07-19T21:36:38.696Z,100853.51
2018-07-19T21:39:13.442Z,100853.95
2018-07-19T21:41:47.719Z,100858.94
2018-07-19T21:44:21.168Z,100853.86
2018-07-19T21:46:54.632Z,100860.01
2018-07-19T21:49:28.042Z,100859.55
2018-07-19T21:52:01.468Z,100858.68
2018-07-19T21:54:34.956Z,100849.95
2018-07-19T21:57:08.371Z,100856.09
2018-07-19T21:59:41.776Z,100860.11
2018-07-19T22:02:15.489Z,100854.56
2018-07-19T22:04:48.940Z,100856.13
2018-07-19T22:07:22.361Z,100857.05
2018-07-19T22:09:55.781Z,100857.05
2018-07-19T22:12:29.191Z,100862.27
2018-07-19T22:15:02.577Z,100858.53
2018-07-19T22:17:35.988Z,100859.53
2018-07-19T22:20:09.355Z,100864.25
2018-07-19T22:22:42.735Z,100860.83
2018-07-19T22:25:16.095Z,100851.46
2018-07-19T22:27:49.523Z,100856.26
2018-07-19T22:30:22.920Z,100858.73
2018-07-19T22:37:48.744Z,100863.20
2018-07-19T22:40:22.117Z,100860.86
2018-07-19T22:42:55.494Z,100862.09
2018-07-19T22:45:28.922Z,100866.56
2018-07-19T22:48:02.299Z,100862.64
2018-07-19T22:50:35.658Z,100859.52
2018-07-19T22:53:09.053Z,100859.09
2018-07-19T22:55:42.451Z,100861.02
2018-07-19T22:58:15.841Z,100853.95
2018-07-19T23:00:49.276Z,100852.25
2018-07-19T23:03:22.990Z,100853.67
2018-07-19T23:05:56.376Z,100857.71
2018-07-19T23:08:29.759Z,100862.59
2018-07-19T23:11:03.152Z,100868.80
2018-07-19T23:13:36.619Z,100861.98
2018-07-19T23:16:10.935Z,100855.65
2018-07-19T23:18:44.435Z,100857.86
2018-07-19T23:21:17.831Z,100860.19
2018-07-19T23:23:51.192Z,100853.99
2018-07-19T23:26:24.907Z,100851.63
2018-07-19T23:28:58.447Z,100847.92
2018-07-19T23:31:31.875Z,100846.47
2018-07-19T23:34:05.565Z,100846.97
2018-07-19T23:36:45.537Z,100840.98
2018-07-19T23:39:29.463Z,100843.30
2018-07-19T23:42:08.207Z,100845.09
2018-07-19T23:44:50.199Z,100844.47
2018-07-19T23:47:26.943Z,100842.22
2018-07-19T23:50:00.325Z,100839.05
2018-07-19T23:52:33.725Z,100837.43
2018-07-19T23:55:07.157Z,100834.23
2018-07-19T23:57:40.543Z,100837.97
